createdAt,value
2023-05-08T00:02:06.813Z,101891.12
2023-05-08T00:04:35.064Z,101892.40
2023-05-08T00:07:03.053Z,101887.46
2023-05-08T00:09:30.934Z,101886.64
2023-05-08T00:11:58.832Z,101888.73
2023-05-08T00:14:26.785Z,101894.48
2023-05-08T00:16:54.693Z,101889.52
2023-05-08T00:19:22.657Z,101896.38
2023-05-08T00:21:50.610Z,101897.20
2023-05-08T00:24:18.510Z,101892.23
2023-05-08T00:26:47.065Z,101897.66
2023-05-08T00:29:14.928Z,101893.51
2023-05-08T00:31:42.879Z,101891.45
2023-05-08T00:34:10.792Z,101898.77
2023-05-08T00:36:38.771Z,101895.41
2023-05-08T00:39:06.622Z,101905.31
2023-05-08T00:41:34.516Z,101899.27
2023-05-08T00:44:02.424Z,101903.74
2023-05-08T00:46:30.413Z,101898.28
2023-05-08T00:48:58.481Z,101895.41
2023-05-08T00:51:26.520Z,101893.34
2023-05-08T00:53:54.713Z,101896.55
2023-05-08T00:56:23.886Z,101893.34
2023-05-08T00:58:52.538Z,101887.91
2023-05-08T01:01:20.687Z,101886.15
2023-05-08T01:03:49.199Z,101882.78
2023-05-08T01:06:17.518Z,101884.38
2023-05-08T01:08:46.898Z,101885.98
2023-05-08T01:11:27.511Z,101888.87
2023-05-08T01:14:09.085Z,101885.46
2023-05-08T01:16:43.130Z,101887.85
2023-05-08T01:19:32.661Z,101886.58
2023-05-08T01:22:38.745Z,101883.20
2023-05-08T01:25:18.545Z,101892.33
2023-05-08T01:28:04.829Z,101892.33
2023-05-08T01:30:46.644Z,101900.47
2023-05-08T01:33:58.021Z,101896.32
2023-05-08T01:36:28.929Z,101892.95
2023-05-08T01:39:23.949Z,101894.03
2023-05-08T01:42:04.320Z,101896.91
2023-05-08T01:44:57.798Z,101886.22
2023-05-08T01:47:32.531Z,101895.14
2023-05-08T01:50:08.638Z,101895.14
2023-05-08T01:52:42.789Z,101896.74
2023-05-08T01:55:15.342Z,101895.14
2023-05-08T01:57:49.484Z,101899.62
2023-05-08T02:00:20.625Z,101899.91
2023-05-08T02:02:50.941Z,101905.67
2023-05-08T02:05:22.400Z,101908.88
2023-05-08T02:07:51.807Z,101909.66
2023-05-08T02:10:21.956Z,101906.78
2023-05-08T02:12:51.235Z,101901.52
2023-05-08T02:15:20.563Z,101903.12
2023-05-08T02:17:52.036Z,101902.63
2023-05-08T02:20:22.744Z,101909.17
2023-05-08T02:22:52.933Z,101897.66
2023-05-08T02:25:22.112Z,101905.80
2023-05-08T02:27:51.976Z,101903.74
2023-05-08T02:30:21.401Z,101905.31
2023-05-08T02:32:50.845Z,101909.95
2023-05-08T02:35:20.696Z,101908.19
2023-05-08T02:37:53.913Z,101913.65
2023-05-08T02:40:25.786Z,101907.90
2023-05-08T02:42:53.792Z,101909.50
2023-05-08T02:45:21.931Z,101910.28
2023-05-08T02:48:00.334Z,101911.88
2023-05-08T02:50:37.184Z,101911.39
2023-05-08T02:53:09.693Z,101915.55
2023-05-08T02:55:45.300Z,101911.07
2023-05-08T02:58:21.884Z,101909.50
2023-05-08T03:01:01.526Z,101913.16
2023-05-08T03:03:38.926Z,101913.95
2023-05-08T03:06:12.686Z,101903.25
2023-05-08T03:08:43.452Z,101911.88
2023-05-08T03:11:17.190Z,101901.16
2023-05-08T03:13:48.123Z,101908.48
2023-05-08T03:16:23.516Z,101896.22
2023-05-08T03:18:59.609Z,101897.79
2023-05-08T03:21:30.668Z,101902.27
2023-05-08T03:24:01.159Z,101895.41
2023-05-08T03:26:30.084Z,101898.09
2023-05-08T03:28:58.199Z,101897.79
2023-05-08T03:31:28.257Z,101890.11
2023-05-08T03:33:57.701Z,101896.68
2023-05-08T03:36:28.177Z,101904.04
2023-05-08T03:38:56.395Z,101908.48
2023-05-08T03:41:24.646Z,101904.33
2023-05-08T03:43:52.668Z,101911.69
2023-05-08T03:46:21.764Z,101909.30
2023-05-08T03:48:50.688Z,101904.52
2023-05-08T03:51:19.215Z,101908.19
2023-05-08T03:53:47.233Z,101900.38
2023-05-08T03:56:15.101Z,101905.61
2023-05-08T03:59:10.520Z,101915.05
2023-05-08T04:01:51.345Z,101912.96
2023-05-08T04:04:25.728Z,101917.45
2023-05-08T04:07:32.131Z,101905.15
2023-05-08T04:10:25.742Z,101909.59
2023-05-08T04:13:13.748Z,101913.26
2023-05-08T04:15:59.332Z,101916.13
2023-05-08T04:18:31.531Z,101917.77
2023-05-08T04:21:00.867Z,101924.48
2023-05-08T04:23:31.235Z,101926.08
2023-05-08T04:26:01.237Z,101928.66
2023-05-08T04:28:29.548Z,101928.66
2023-05-08T04:30:59.647Z,101935.23
2023-05-08T04:33:27.874Z,101933.11
2023-05-08T04:35:56.068Z,101927.05
2023-05-08T04:38:24.006Z,101925.45
2023-05-08T04:40:51.867Z,101935.23
2023-05-08T04:43:19.796Z,101934.71
2023-05-08T04:45:47.851Z,101929.94
2023-05-08T04:48:15.834Z,101938.11
2023-05-08T04:50:43.839Z,101943.34
2023-05-08T04:53:11.883Z,101939.98
2023-05-08T04:55:39.859Z,101945.27
2023-05-08T04:58:07.815Z,101939.52
2023-05-08T05:00:36.899Z,101938.99
2023-05-08T05:03:04.952Z,101941.41
2023-05-08T05:05:32.897Z,101932.29
2023-05-08T05:08:00.881Z,101930.98
2023-05-08T05:10:28.756Z,101936.25
2023-05-08T05:12:56.932Z,101936.57
2023-05-08T05:15:24.901Z,101937.65
2023-05-08T05:17:53.040Z,101932.71
2023-05-08T05:20:20.977Z,101938.77
2023-05-08T05:22:48.931Z,101940.37
2023-05-08T05:25:16.837Z,101944.81
2023-05-08T05:27:44.746Z,101945.11
2023-05-08T05:30:13.971Z,101947.53
2023-05-08T05:32:42.110Z,101947.04
2023-05-08T05:35:11.337Z,101953.88
2023-05-08T05:37:39.524Z,101945.24
2023-05-08T05:40:08.239Z,101950.05
2023-05-08T05:42:36.173Z,101956.59
2023-05-08T05:45:04.185Z,101954.98
2023-05-08T05:47:32.138Z,101962.66
2023-05-08T05:50:00.229Z,101956.91
2023-05-08T05:52:28.208Z,101959.27
2023-05-08T05:54:56.235Z,101959.27
2023-05-08T05:57:24.100Z,101969.05
2023-05-08T05:59:54.193Z,101967.24
2023-05-08T06:02:22.894Z,101966.46
2023-05-08T06:04:53.215Z,101968.03
2023-05-08T06:07:22.471Z,101969.63
2023-05-08T06:09:52.357Z,101973.63
2023-05-08T06:12:20.822Z,101970.26
2023-05-08T06:14:48.983Z,101969.73
2023-05-08T06:17:18.245Z,101969.57
2023-05-08T06:19:51.472Z,101966.00
2023-05-08T06:22:19.757Z,101975.26
2023-05-08T06:24:48.468Z,101978.43
2023-05-08T06:27:16.506Z,101976.83
2023-05-08T06:29:44.410Z,101978.23
2023-05-08T06:32:12.305Z,101971.98
2023-05-08T06:34:40.217Z,101978.82
2023-05-08T06:37:08.149Z,101978.37
2023-05-08T06:39:36.051Z,101981.44
2023-05-08T06:42:04.823Z,101973.39
2023-05-08T06:44:36.768Z,101978.66
2023-05-08T06:47:04.845Z,101974.47
2023-05-08T06:49:32.704Z,101975.78
2023-05-08T06:52:00.606Z,101979.64
2023-05-08T06:54:28.571Z,101984.31
2023-05-08T06:56:56.640Z,101989.09
2023-05-08T06:59:27.479Z,101985.43
2023-05-08T07:01:55.420Z,101990.17
2023-05-08T07:04:23.363Z,101983.83
2023-05-08T07:06:51.285Z,101987.00
2023-05-08T07:09:21.893Z,101990.17
2023-05-08T07:11:49.942Z,101984.12
2023-05-08T07:14:17.931Z,101982.22
2023-05-08T07:16:45.799Z,101977.77
2023-05-08T07:19:13.697Z,101985.59
2023-05-08T07:21:41.731Z,101985.00
2023-05-08T07:24:09.729Z,101982.91
2023-05-08T07:26:37.732Z,101994.75
2023-05-08T07:29:05.668Z,101988.99
2023-05-08T07:31:33.596Z,101988.47
2023-05-08T07:34:02.214Z,101986.12
2023-05-08T07:36:30.298Z,101989.29
2023-05-08T07:38:58.187Z,101983.83
2023-05-08T07:41:27.907Z,101990.98
2023-05-08T07:43:55.737Z,101987.91
2023-05-08T07:46:23.950Z,101984.84
2023-05-08T07:48:51.990Z,101984.64
2023-05-08T07:51:19.954Z,101994.68
2023-05-08T07:53:50.012Z,101998.38
2023-05-08T07:56:17.912Z,101990.04
2023-05-08T07:58:47.279Z,101991.64
2023-05-08T08:01:15.179Z,101994.02
2023-05-08T08:03:43.176Z,101991.94
2023-05-08T08:06:11.296Z,101995.63
2023-05-08T08:08:39.521Z,101994.52
2023-05-08T08:11:08.577Z,101986.67
2023-05-08T08:13:36.547Z,101994.02
2023-05-08T08:16:05.594Z,101995.14
2023-05-08T08:18:39.324Z,101991.25
2023-05-08T08:21:08.776Z,101994.75
2023-05-08T08:23:36.766Z,101995.83
2023-05-08T08:26:04.735Z,101994.06
2023-05-08T08:28:33.197Z,101995.95
2023-05-08T08:31:01.421Z,101992.69
2023-05-08T08:33:30.920Z,101991.97
2023-05-08T08:35:58.830Z,101991.87
2023-05-08T08:38:26.682Z,101991.48
2023-05-08T08:40:55.573Z,101987.59
2023-05-08T08:43:23.632Z,101985.07
2023-05-08T08:45:51.677Z,101985.98
2023-05-08T08:48:21.172Z,101982.71
2023-05-08T08:50:52.559Z,101983.17
2023-05-08T08:53:35.952Z,101988.05
2023-05-08T08:56:05.150Z,101981.27
2023-05-08T08:58:45.158Z,101985.52
2023-05-08T09:01:18.294Z,101986.90
2023-05-08T09:03:48.338Z,101990.59
2023-05-08T09:06:18.617Z,101992.00
2023-05-08T09:08:46.915Z,101984.12
2023-05-08T09:11:14.894Z,101982.32
2023-05-08T09:13:42.798Z,101979.21
2023-05-08T09:16:10.782Z,101982.38
2023-05-08T09:18:38.726Z,101978.20
2023-05-08T09:21:07.968Z,101977.22
2023-05-08T09:23:39.166Z,101980.20
2023-05-08T09:26:07.261Z,101982.09
2023-05-08T09:28:35.086Z,101976.66
2023-05-08T09:31:03.863Z,101978.40
2023-05-08T09:33:32.116Z,101979.28
2023-05-08T09:36:00.041Z,101983.34
2023-05-08T09:38:37.965Z,101986.87
2023-05-08T09:41:16.857Z,101982.81
2023-05-08T09:43:46.581Z,101980.03
2023-05-08T09:46:23.891Z,101990.43
2023-05-08T09:48:53.383Z,101988.96
2023-05-08T09:51:22.064Z,101997.46
2023-05-08T09:53:55.860Z,101995.92
2023-05-08T09:56:33.380Z,101992.06
2023-05-08T09:59:01.672Z,101998.97
2023-05-08T10:01:31.411Z,101994.78
2023-05-08T10:04:00.282Z,101998.73
2023-05-08T10:06:29.932Z,101991.90
2023-05-08T10:09:15.307Z,101996.58
2023-05-08T10:11:53.935Z,101992.10
2023-05-08T10:14:22.676Z,101993.93
2023-05-08T10:16:55.926Z,102002.34
2023-05-08T10:19:25.912Z,101998.31
2023-05-08T10:21:56.573Z,102002.73
2023-05-08T10:24:34.650Z,101994.35
2023-05-08T10:27:19.068Z,101997.04
2023-05-08T10:29:57.995Z,101995.43
2023-05-08T10:32:27.194Z,101991.54
2023-05-08T10:34:59.978Z,101990.59
2023-05-08T10:37:31.172Z,101987.42
2023-05-08T10:39:59.593Z,101985.88
2023-05-08T10:42:29.183Z,101988.05
2023-05-08T10:44:57.610Z,101985.72
2023-05-08T10:47:45.050Z,101989.19
2023-05-08T10:50:22.138Z,101983.89
2023-05-08T10:53:04.625Z,101979.09
2023-05-08T10:55:35.074Z,101976.70
2023-05-08T10:58:17.590Z,101979.05
2023-05-08T11:00:54.500Z,101980.59
2023-05-08T11:03:32.133Z,101975.81
2023-05-08T11:06:02.594Z,101979.67
2023-05-08T11:08:31.971Z,101978.73
2023-05-08T11:10:59.795Z,101971.63
2023-05-08T11:13:34.653Z,101969.41
2023-05-08T11:16:03.195Z,101969.60
2023-05-08T11:18:45.639Z,101964.63
2023-05-08T11:21:21.979Z,101965.41
2023-05-08T11:23:59.132Z,101967.80
2023-05-08T11:26:42.152Z,101960.22
2023-05-08T11:29:19.067Z,101964.11
2023-05-08T11:31:54.474Z,101961.00
2023-05-08T11:34:44.235Z,101956.78
2023-05-08T11:37:18.987Z,101958.09
2023-05-08T11:39:47.860Z,101954.76
2023-05-08T11:42:30.973Z,101955.60
2023-05-08T11:45:10.306Z,101949.98
2023-05-08T11:47:40.452Z,101957.08
2023-05-08T11:50:10.642Z,101962.96
2023-05-08T11:52:40.664Z,101954.33
2023-05-08T11:55:10.980Z,101946.97
2023-05-08T11:57:39.459Z,101945.99
2023-05-08T12:00:12.562Z,101940.04
2023-05-08T12:02:42.498Z,101945.37
2023-05-08T12:05:11.937Z,101943.05
2023-05-08T12:07:47.838Z,101941.51
2023-05-08T12:10:17.526Z,101942.27
2023-05-08T12:12:46.534Z,101947.69
2023-05-08T12:15:16.409Z,101946.55
2023-05-08T12:17:44.574Z,101949.39
2023-05-08T12:20:17.220Z,101951.68
2023-05-08T12:22:54.415Z,101949.52
2023-05-08T12:25:22.279Z,101952.11
2023-05-08T12:27:50.206Z,101946.19
2023-05-08T12:30:18.743Z,101947.23
2023-05-08T12:32:48.102Z,101948.73
2023-05-08T12:35:17.076Z,101944.16
2023-05-08T12:37:46.977Z,101941.12
2023-05-08T12:40:28.193Z,101938.66
2023-05-08T12:42:56.196Z,101952.53
2023-05-08T12:45:26.824Z,101941.22
2023-05-08T12:48:00.068Z,101948.57
2023-05-08T12:50:28.261Z,101950.38
2023-05-08T12:52:56.202Z,101944.32
2023-05-08T12:55:24.419Z,101949.30
2023-05-08T12:58:01.996Z,101946.91
2023-05-08T13:00:40.922Z,101958.77
2023-05-08T13:03:11.571Z,101960.05
2023-05-08T13:05:43.689Z,101950.38
2023-05-08T13:08:12.479Z,101957.96
2023-05-08T13:10:49.602Z,101958.48
2023-05-08T13:13:20.659Z,101960.77
2023-05-08T13:15:49.617Z,101951.02
2023-05-08T13:18:18.460Z,101960.22
2023-05-08T13:20:47.577Z,101956.45
2023-05-08T13:23:15.686Z,101952.99
2023-05-08T13:25:43.551Z,101954.30
2023-05-08T13:28:12.240Z,101957.20
2023-05-08T13:30:40.566Z,101947.23
2023-05-08T13:33:09.042Z,101945.04
2023-05-08T13:35:37.587Z,101953.22
2023-05-08T13:38:05.755Z,101951.42
2023-05-08T13:40:33.759Z,101949.23
2023-05-08T13:43:01.642Z,101946.05
2023-05-08T13:45:29.620Z,101946.55
2023-05-08T13:47:57.620Z,101946.28
2023-05-08T13:50:25.789Z,101947.07
2023-05-08T13:52:55.159Z,101943.87
2023-05-08T13:55:24.188Z,101942.30
2023-05-08T13:57:52.459Z,101940.14
2023-05-08T14:00:20.885Z,101939.58
2023-05-08T14:02:50.774Z,101933.80
2023-05-08T14:05:20.494Z,101936.38
2023-05-08T14:07:48.543Z,101939.74
2023-05-08T14:10:18.442Z,101938.17
2023-05-08T14:12:47.067Z,101940.23
2023-05-08T14:15:15.310Z,101938.93
2023-05-08T14:17:43.642Z,101936.54
2023-05-08T14:20:12.291Z,101939.45
2023-05-08T14:22:40.776Z,101940.23
2023-05-08T14:25:09.646Z,101943.63
2023-05-08T14:27:38.987Z,101944.16
2023-05-08T14:30:07.814Z,101945.96
2023-05-08T14:32:35.839Z,101946.97
2023-05-08T14:35:03.885Z,101944.29
2023-05-08T14:37:32.521Z,101941.61
2023-05-08T14:40:00.854Z,101940.79
2023-05-08T14:42:28.784Z,101934.25
2023-05-08T14:44:57.384Z,101941.12
2023-05-08T14:47:25.485Z,101947.16
2023-05-08T14:49:55.001Z,101940.10
2023-05-08T14:52:22.957Z,101937.69
2023-05-08T14:54:54.652Z,101941.67
2023-05-08T14:57:22.852Z,101942.79
2023-05-08T14:59:54.909Z,101941.67
2023-05-08T15:02:24.471Z,101937.49
2023-05-08T15:04:52.510Z,101936.18
2023-05-08T15:07:20.374Z,101936.48
2023-05-08T15:09:49.166Z,101936.48
2023-05-08T15:12:17.133Z,101934.19
2023-05-08T15:14:44.998Z,101941.38
2023-05-08T15:17:13.012Z,101942.46
2023-05-08T15:19:40.947Z,101939.94
2023-05-08T15:22:08.826Z,101937.52
2023-05-08T15:24:36.890Z,101932.78
2023-05-08T15:27:05.050Z,101932.03
2023-05-08T15:29:32.971Z,101929.74
2023-05-08T15:32:00.990Z,101924.31
2023-05-08T15:34:29.549Z,101918.88
2023-05-08T15:37:00.594Z,101929.80
2023-05-08T15:39:28.537Z,101928.07
2023-05-08T15:41:56.433Z,101939.81
2023-05-08T15:44:26.545Z,101936.70
2023-05-08T15:46:56.760Z,101932.35
2023-05-08T15:49:28.442Z,101932.65
2023-05-08T15:51:56.912Z,101927.71
2023-05-08T15:54:24.828Z,101931.44
2023-05-08T15:56:52.838Z,101932.88
2023-05-08T15:59:20.850Z,101937.95
2023-05-08T16:01:49.857Z,101939.32
2023-05-08T16:04:19.674Z,101928.86
2023-05-08T16:06:47.617Z,101928.17
2023-05-08T16:09:15.587Z,101922.97
2023-05-08T16:11:44.325Z,101919.93
2023-05-08T16:14:12.192Z,101920.48
2023-05-08T16:16:40.825Z,101918.69
2023-05-08T16:19:08.717Z,101917.64
2023-05-08T16:21:36.670Z,101913.72
2023-05-08T16:24:05.006Z,101913.72
2023-05-08T16:26:32.832Z,101921.11
2023-05-08T16:29:00.731Z,101922.19
2023-05-08T16:31:28.732Z,101922.97
2023-05-08T16:33:56.793Z,101925.65
2023-05-08T16:36:24.701Z,101935.43
2023-05-08T16:38:52.662Z,101927.52
2023-05-08T16:41:20.627Z,101926.50
2023-05-08T16:43:48.643Z,101928.07
2023-05-08T16:46:20.770Z,101933.07
2023-05-08T16:48:54.751Z,101934.38
2023-05-08T16:51:22.655Z,101937.75
2023-05-08T16:53:50.612Z,101934.02
2023-05-08T16:56:18.640Z,101931.60
2023-05-08T16:58:46.647Z,101930.00
2023-05-08T17:01:15.513Z,101930.49
2023-05-08T17:03:43.534Z,101932.59
2023-05-08T17:06:11.627Z,101924.08
2023-05-08T17:08:39.556Z,101933.04
2023-05-08T17:11:07.540Z,101940.66
2023-05-08T17:13:35.448Z,101935.69
2023-05-08T17:16:03.915Z,101942.27
2023-05-08T17:18:31.847Z,101945.14
2023-05-08T17:20:59.658Z,101943.27
2023-05-08T17:23:27.553Z,101943.27
2023-05-08T17:26:00.195Z,101947.01
2023-05-08T17:28:28.299Z,101947.49
2023-05-08T17:30:57.228Z,101947.49
2023-05-08T17:33:25.368Z,101949.33
2023-05-08T17:35:53.395Z,101949.30
2023-05-08T17:38:21.844Z,101955.60
2023-05-08T17:40:49.848Z,101950.30
2023-05-08T17:43:18.919Z,101962.41
2023-05-08T17:45:48.782Z,101958.74
2023-05-08T17:48:16.827Z,101964.53
2023-05-08T17:50:47.034Z,101960.05
2023-05-08T17:53:15.048Z,101956.36
2023-05-08T17:55:44.070Z,101962.93
2023-05-08T17:58:11.926Z,101962.41
2023-05-08T18:00:39.905Z,101959.23
2023-05-08T18:03:07.923Z,101968.72
2023-05-08T18:05:35.923Z,101955.84
2023-05-08T18:08:03.946Z,101965.58
2023-05-08T18:10:32.697Z,101962.99
2023-05-08T18:13:00.951Z,101964.83
2023-05-08T18:15:28.905Z,101968.81
2023-05-08T18:17:56.969Z,101972.25
2023-05-08T18:20:25.040Z,101964.63
2023-05-08T18:22:53.049Z,101965.61
2023-05-08T18:25:20.962Z,101969.83
2023-05-08T18:27:51.303Z,101972.67
2023-05-08T18:30:19.310Z,101971.04
2023-05-08T18:32:47.295Z,101982.09
2023-05-08T18:35:15.402Z,101986.27
2023-05-08T18:37:43.349Z,101983.89
2023-05-08T18:40:12.418Z,101992.85
2023-05-08T18:42:40.435Z,101990.98
2023-05-08T18:45:09.099Z,101994.95
2023-05-08T18:47:37.126Z,101999.62
2023-05-08T18:50:05.512Z,101998.05
2023-05-08T18:52:33.416Z,102000.93
2023-05-08T18:55:01.399Z,102000.14
2023-05-08T18:57:29.372Z,101997.23
2023-05-08T18:59:57.364Z,101994.62
2023-05-08T19:02:29.285Z,101993.08
2023-05-08T19:04:57.209Z,101994.98
2023-05-08T19:07:25.285Z,101995.47
2023-05-08T19:09:53.270Z,102000.93
2023-05-08T19:12:21.130Z,102010.34
2023-05-08T19:14:50.367Z,102010.25
2023-05-08T19:17:18.378Z,102004.55
2023-05-08T19:19:46.452Z,102004.95
2023-05-08T19:22:14.712Z,102004.91
2023-05-08T19:24:42.567Z,102013.52
2023-05-08T19:27:10.692Z,102001.94
2023-05-08T19:29:38.705Z,102008.74
2023-05-08T19:32:06.932Z,102008.45
2023-05-08T19:34:38.184Z,102007.14
2023-05-08T19:37:07.465Z,102002.40
2023-05-08T19:39:35.332Z,101997.92
2023-05-08T19:42:04.044Z,101995.80
2023-05-08T19:44:33.901Z,101998.90
2023-05-08T19:47:03.805Z,102005.15
2023-05-08T19:49:32.182Z,102001.68
2023-05-08T19:52:00.145Z,102002.46
2023-05-08T19:54:28.062Z,102001.91
2023-05-08T19:56:56.246Z,101999.16
2023-05-08T19:59:24.263Z,102006.16
2023-05-08T20:01:52.472Z,102004.79
2023-05-08T20:04:20.697Z,102000.21
2023-05-08T20:06:48.607Z,101996.48
2023-05-08T20:09:16.657Z,102007.14
2023-05-08T20:11:44.592Z,102003.12
2023-05-08T20:14:13.516Z,102001.71
2023-05-08T20:16:43.063Z,102004.30
2023-05-08T20:19:11.040Z,102007.89
2023-05-08T20:21:39.343Z,102000.44
2023-05-08T20:24:07.669Z,101999.85
2023-05-08T20:26:35.557Z,101997.20
2023-05-08T20:29:03.428Z,102002.37
2023-05-08T20:31:32.237Z,101993.41
2023-05-08T20:34:01.046Z,102005.15
2023-05-08T20:36:29.280Z,102009.04
2023-05-08T20:38:57.212Z,102000.01
2023-05-08T20:41:25.150Z,102010.18
2023-05-08T20:43:53.064Z,102009.56
2023-05-08T20:46:20.981Z,101999.81
2023-05-08T20:48:49.030Z,102004.00
2023-05-08T20:51:17.013Z,102002.92
2023-05-08T20:53:44.935Z,101996.05
2023-05-08T20:56:13.567Z,102000.73
2023-05-08T20:58:42.447Z,101996.45
2023-05-08T21:01:10.456Z,101994.75
2023-05-08T21:03:39.987Z,101996.25
2023-05-08T21:06:08.078Z,101988.60
2023-05-08T21:08:37.681Z,101994.35
2023-05-08T21:11:05.883Z,101988.80
2023-05-08T21:13:33.783Z,101987.20
2023-05-08T21:16:01.698Z,101989.29
2023-05-08T21:18:29.763Z,101985.63
2023-05-08T21:20:57.658Z,101979.54
2023-05-08T21:23:25.624Z,101981.63
2023-05-08T21:25:54.522Z,101977.97
2023-05-08T21:28:22.565Z,101980.52
2023-05-08T21:30:50.411Z,101976.04
2023-05-08T21:33:19.037Z,101974.18
2023-05-08T21:35:46.987Z,101971.76
2023-05-08T21:38:14.813Z,101971.95
2023-05-08T21:40:42.792Z,101961.72
2023-05-08T21:43:11.231Z,101965.61
2023-05-08T21:45:39.328Z,101962.24
2023-05-08T21:48:07.467Z,101971.07
2023-05-08T21:50:35.396Z,101971.37
2023-05-08T21:53:03.333Z,101960.64
2023-05-08T21:55:32.500Z,101962.24
2023-05-08T21:58:00.547Z,101964.30
2023-05-08T22:00:28.605Z,101961.42
2023-05-08T22:02:56.566Z,101960.12
2023-05-08T22:05:25.774Z,101956.95
2023-05-08T22:07:53.800Z,101957.96
2023-05-08T22:10:22.909Z,101960.84
2023-05-08T22:12:50.861Z,101963.42
2023-05-08T22:15:28.904Z,101966.79
2023-05-08T22:17:57.844Z,101970.16
2023-05-08T22:20:25.908Z,101975.16
2023-05-08T22:22:53.933Z,101969.24
2023-05-08T22:25:23.013Z,101962.37
2023-05-08T22:27:50.901Z,101962.08
2023-05-08T22:30:18.925Z,101959.20
2023-05-08T22:32:55.409Z,101965.45
2023-05-08T22:35:28.910Z,101958.09
2023-05-08T22:37:58.547Z,101954.10
2023-05-08T22:40:27.294Z,101962.77
2023-05-08T22:42:57.113Z,101956.23
2023-05-08T22:45:25.201Z,101959.10
2023-05-08T22:47:53.157Z,101962.47
2023-05-08T22:50:21.326Z,101960.05
2023-05-08T22:52:49.348Z,101945.66
2023-05-08T22:55:17.538Z,101952.23
2023-05-08T22:57:45.520Z,101948.05
2023-05-08T23:00:13.956Z,101942.30
2023-05-08T23:02:41.929Z,101940.20
2023-05-08T23:05:10.383Z,101928.17
2023-05-08T23:07:38.245Z,101923.23
2023-05-08T23:10:06.429Z,101923.23
2023-05-08T23:12:34.289Z,101916.92
2023-05-08T23:15:02.449Z,101924.31
2023-05-08T23:17:30.336Z,101923.04
2023-05-08T23:19:58.251Z,101920.91
2023-05-08T23:22:26.186Z,101906.52
2023-05-08T23:24:54.212Z,101902.86
2023-05-08T23:27:22.234Z,101905.21
2023-05-08T23:29:50.208Z,101903.16
2023-05-08T23:32:18.036Z,101899.95
2023-05-08T23:34:46.103Z,101892.10
2023-05-08T23:37:14.055Z,101893.38
2023-05-08T23:39:42.552Z,101898.67
2023-05-08T23:42:10.668Z,101892.10
2023-05-08T23:44:38.612Z,101881.08
2023-05-08T23:47:06.532Z,101881.87
2023-05-08T23:49:34.441Z,101872.45
2023-05-08T23:52:02.275Z,101867.45
2023-05-08T23:54:30.148Z,101871.92
2023-05-08T23:56:58.050Z,101874.51
2023-05-08T23:59:25.992Z,101870.81
